Time;durP1;ratioP1;P1;durP2;ratioP2;P2;SDS_P1;SDS_P2;PMS_P1;PMS_P2;Temp;Humidity;BMP_temperature;BMP_pressure;BME280_temperature;BME280_humidity;BME280_pressure;Samples;Min_cycle;Max_cycle;Signal;HPM_P1;HPM_P2
2022/03/13 00:02:01;;;;;;;;;;;;;;;;;;5031733;28;1146;-76
2022/03/13 00:04:27;;;;;;;;;;;;;;;;;;5031362;28;1033;-76
2022/03/13 00:06:55;;;;;;;;;;;;;;;;;;5031057;28;1969;-76
2022/03/13 00:09:22;;;;;;;;;;;;;;;;;;5013513;28;1207;-76
2022/03/13 00:11:52;;;;;;;;;;;;;;;;;;5032124;28;1469;-75
2022/03/13 00:14:20;;;;;;;;;;;;;;;;;;5031437;28;1161;-76
2022/03/13 00:16:46;;;;;;;;;;;;;;;;;;5032961;28;1271;-75
2022/03/13 00:19:12;;;;;;;;;;;;;;;;;;5034915;28;968;-76
2022/03/13 00:21:39;;;;;;;;;;;;;;;;;;5035981;28;802;-76
2022/03/13 00:24:06;;;;;;;;;;;;;;;;;;5022328;28;1097;-77
2022/03/13 00:26:34;;;;;;;;;;;;;;;;;;5052629;28;1895;-77
2022/03/13 00:29:01;;;;;;;;;;;;;;;;;;5050252;28;1040;-76
2022/03/13 00:31:29;;;;;;;;;;;;;;;;;;5035668;28;872;-77
2022/03/13 00:33:55;;;;;;;;;;;;;;;;;;5034802;28;1091;-76
2022/03/13 00:36:22;;;;;;;;;;;;;;;;;;5034676;28;1340;-76
2022/03/13 00:38:48;;;;;;;;;;;;;;;;;;5035026;28;977;-75
2022/03/13 00:41:14;;;;;;;;;;;;;;;;;;5034535;28;822;-76
2022/03/13 00:43:40;;;;;;;;;;;;;;;;;;5016752;28;1180;-76
2022/03/13 00:46:08;;;;;;;;;;;;;;;;;;5034489;28;1391;-75
2022/03/13 00:48:34;;;;;;;;;;;;;;;;;;5034637;28;1918;-75
2022/03/13 00:51:00;;;;;;;;;;;;;;;;;;5034120;28;956;-76
2022/03/13 00:53:27;;;;;;;;;;;;;;;;;;5034520;28;1090;-75
2022/03/13 00:55:53;;;;;;;;;;;;;;;;;;5016330;28;1354;-76
2022/03/13 00:58:19;;;;;;;;;;;;;;;;;;5033960;28;1091;-76
2022/03/13 01:00:45;;;;;;;;;;;;;;;;;;5016207;28;1144;-76
2022/03/13 01:03:18;;;;;;;;;;;;;;;;;;5034267;28;1079;-76
2022/03/13 01:05:44;;;;;;;;;;;;;;;;;;5033948;28;1358;-76
2022/03/13 01:08:10;;;;;;;;;;;;;;;;;;5033816;28;1989;-76
2022/03/13 01:10:37;;;;;;;;;;;;;;;;;;5034120;28;1098;-76
2022/03/13 01:13:03;;;;;;;;;;;;;;;;;;5016104;28;1167;-76
2022/03/13 01:15:31;;;;;;;;;;;;;;;;;;5033986;28;1314;-76
2022/03/13 01:17:57;;;;;;;;;;;;;;;;;;5033614;28;1117;-77
2022/03/13 01:20:24;;;;;;;;;;;;;;;;;;5033713;28;948;-76
2022/03/13 01:22:51;;;;;;;;;;;;;;;;;;5034282;28;1063;-76
2022/03/13 01:25:17;;;;;;;;;;;;;;;;;;5033744;28;821;-77
2022/03/13 01:27:45;;;;;;;;;;;;;;;;;;5031738;28;1971;-76
2022/03/13 01:30:14;;;;;;;;;;;;;;;;;;5033596;28;957;-76
2022/03/13 01:32:40;;;;;;;;;;;;;;;;;;5033529;28;957;-76
2022/03/13 01:35:06;;;;;;;;;;;;;;;;;;5033416;28;1130;-77
2022/03/13 01:37:34;;;;;;;;;;;;;;;;;;5033203;28;1378;-76
2022/03/13 01:40:04;;;;;;;;;;;;;;;;;;5033370;28;885;-76
2022/03/13 01:42:30;;;;;;;;;;;;;;;;;;5015365;28;1298;-77
2022/03/13 01:44:57;;;;;;;;;;;;;;;;;;5015691;28;1180;-76
2022/03/13 01:47:24;;;;;;;;;;;;;;;;;;5032904;28;1914;-77
2022/03/13 01:49:51;;;;;;;;;;;;;;;;;;5033067;28;1140;-76
2022/03/13 01:52:17;;;;;;;;;;;;;;;;;;5033092;28;984;-76
2022/03/13 01:54:45;;;;;;;;;;;;;;;;;;5032921;28;1031;-76
2022/03/13 01:57:15;;;;;;;;;;;;;;;;;;5032697;28;1431;-77
2022/03/13 01:59:41;;;;;;;;;;;;;;;;;;5033206;28;854;-75
2022/03/13 02:02:07;;;;;;;;;;;;;;;;;;5032960;28;764;-76
2022/03/13 02:04:34;;;;;;;;;;;;;;;;;;5032786;28;896;-76
2022/03/13 02:07:00;;;;;;;;;;;;;;;;;;5032350;28;1981;-76
2022/03/13 02:09:27;;;;;;;;;;;;;;;;;;5015113;28;1128;-77
2022/03/13 02:11:55;;;;;;;;;;;;;;;;;;5015109;28;1302;-77
2022/03/13 02:14:22;;;;;;;;;;;;;;;;;;5034131;28;1515;-77
2022/03/13 02:16:48;;;;;;;;;;;;;;;;;;5052258;28;1314;-77
2022/03/13 02:19:15;;;;;;;;;;;;;;;;;;5052231;28;1220;-76
2022/03/13 02:21:44;;;;;;;;;;;;;;;;;;5052787;28;956;-76
2022/03/13 02:24:13;;;;;;;;;;;;;;;;;;5052227;28;751;-74
2022/03/13 02:26:42;;;;;;;;;;;;;;;;;;5051669;28;1419;-75
2022/03/13 02:29:10;;;;;;;;;;;;;;;;;;5052530;28;1918;-76
2022/03/13 02:31:37;;;;;;;;;;;;;;;;;;5051958;28;1149;-76
2022/03/13 02:34:09;;;;;;;;;;;;;;;;;;5051947;28;600;-76
2022/03/13 02:36:41;;;;;;;;;;;;;;;;;;5051805;28;1302;-76
2022/03/13 02:39:07;;;;;;;;;;;;;;;;;;5051584;28;1137;-76
2022/03/13 02:41:37;;;;;;;;;;;;;;;;;;5052156;28;798;-76
2022/03/13 02:44:04;;;;;;;;;;;;;;;;;;5051974;28;1103;-74
2022/03/13 02:46:51;;;;;;;;;;;;;;;;;;5033708;28;1329;-75
2022/03/13 02:49:19;;;;;;;;;;;;;;;;;;5033834;28;1918;-75
2022/03/13 02:51:45;;;;;;;;;;;;;;;;;;5051841;28;1078;-75
2022/03/13 02:54:13;;;;;;;;;;;;;;;;;;5051733;28;996;-76
2022/03/13 02:56:40;;;;;;;;;;;;;;;;;;5051221;28;1396;-75
2022/03/13 02:59:06;;;;;;;;;;;;;;;;;;5051517;28;1086;-75
2022/03/13 03:01:33;;;;;;;;;;;;;;;;;;5034551;28;1301;-75
2022/03/13 03:03:59;;;;;;;;;;;;;;;;;;5033897;28;1160;-75
2022/03/13 03:06:26;;;;;;;;;;;;;;;;;;5051905;28;1321;-75
2022/03/13 03:08:52;;;;;;;;;;;;;;;;;;5035418;28;1906;-75
2022/03/13 03:11:18;;;;;;;;;;;;;;;;;;5060002;28;1039;-75
2022/03/13 03:13:46;;;;;;;;;;;;;;;;;;5071422;28;1056;-76
2022/03/13 03:16:12;;;;;;;;;;;;;;;;;;5062653;28;1293;-75
2022/03/13 03:18:38;;;;;;;;;;;;;;;;;;5051295;28;1082;-75
2022/03/13 03:21:04;;;;;;;;;;;;;;;;;;5051391;28;1020;-76
2022/03/13 03:23:31;;;;;;;;;;;;;;;;;;5051830;28;1070;-75
2022/03/13 03:25:57;;;;;;;;;;;;;;;;;;5051408;28;1273;-76
2022/03/13 03:28:23;;;;;;;;;;;;;;;;;;5033125;28;1922;-75
2022/03/13 03:30:51;;;;;;;;;;;;;;;;;;5051256;28;1007;-75
2022/03/13 03:33:17;;;;;;;;;;;;;;;;;;5051112;28;1149;-76
2022/03/13 03:35:43;;;;;;;;;;;;;;;;;;5050890;28;1324;-75
2022/03/13 03:38:11;;;;;;;;;;;;;;;;;;5050779;28;825;-75
2022/03/13 03:40:37;;;;;;;;;;;;;;;;;;5051315;28;972;-75
2022/03/13 03:43:04;;;;;;;;;;;;;;;;;;5051133;28;1100;-75
2022/03/13 03:45:31;;;;;;;;;;;;;;;;;;5050867;28;1395;-75
2022/03/13 03:47:59;;;;;;;;;;;;;;;;;;5050709;28;1906;-75
2022/03/13 03:50:25;;;;;;;;;;;;;;;;;;5051125;28;1086;-75
2022/03/13 03:52:55;;;;;;;;;;;;;;;;;;5055410;28;1046;-75
2022/03/13 03:55:22;;;;;;;;;;;;;;;;;;5055001;28;1141;-75
2022/03/13 03:57:48;;;;;;;;;;;;;;;;;;5036516;28;1172;-75
2022/03/13 04:00:15;;;;;;;;;;;;;;;;;;5054764;28;1094;-76
2022/03/13 04:02:41;;;;;;;;;;;;;;;;;;5054540;28;831;-76
2022/03/13 04:05:09;;;;;;;;;;;;;;;;;;5054269;28;1015;-74
2022/03/13 04:07:36;;;;;;;;;;;;;;;;;;5053972;28;1977;-76
2022/03/13 04:10:02;;;;;;;;;;;;;;;;;;5054769;28;901;-76
2022/03/13 04:12:30;;;;;;;;;;;;;;;;;;5051322;28;1511;-74
2022/03/13 04:14:56;;;;;;;;;;;;;;;;;;5054555;28;1117;-76
2022/03/13 04:17:22;;;;;;;;;;;;;;;;;;5054092;28;1400;-75
2022/03/13 04:19:48;;;;;;;;;;;;;;;;;;5054546;28;876;-75
2022/03/13 04:22:16;;;;;;;;;;;;;;;;;;5054508;28;1130;-75
2022/03/13 04:24:42;;;;;;;;;;;;;;;;;;5036115;28;1288;-74
2022/03/13 04:27:09;;;;;;;;;;;;;;;;;;5054005;28;1306;-75
2022/03/13 04:29:35;;;;;;;;;;;;;;;;;;5053869;28;1976;-75
2022/03/13 04:32:05;;;;;;;;;;;;;;;;;;5036020;28;953;-75
2022/03/13 04:34:32;;;;;;;;;;;;;;;;;;5054113;28;743;-75
2022/03/13 04:37:00;;;;;;;;;;;;;;;;;;5036168;28;1407;-75
2022/03/13 04:39:27;;;;;;;;;;;;;;;;;;5055206;28;775;-75
2022/03/13 04:41:54;;;;;;;;;;;;;;;;;;5037264;28;1151;-75
2022/03/13 04:44:21;;;;;;;;;;;;;;;;;;5055368;28;1005;-74
2022/03/13 04:46:47;;;;;;;;;;;;;;;;;;5037206;28;1334;-75
2022/03/13 04:49:13;;;;;;;;;;;;;;;;;;5055723;28;1922;-73
2022/03/13 04:51:41;;;;;;;;;;;;;;;;;;5054137;28;801;-74
2022/03/13 04:54:08;;;;;;;;;;;;;;;;;;5053611;28;1083;-74
2022/03/13 04:56:38;;;;;;;;;;;;;;;;;;5035080;28;1341;-74
2022/03/13 04:59:07;;;;;;;;;;;;;;;;;;5035536;28;1120;-75
2022/03/13 05:01:33;;;;;;;;;;;;;;;;;;5035093;28;1104;-75
2022/03/13 05:04:00;;;;;;;;;;;;;;;;;;5053197;28;1071;-75
2022/03/13 05:06:26;;;;;;;;;;;;;;;;;;5053099;28;1341;-72
2022/03/13 05:08:53;;;;;;;;;;;;;;;;;;5050040;28;1996;-74
2022/03/13 05:11:19;;;;;;;;;;;;;;;;;;5040697;28;1150;-74
2022/03/13 05:13:47;;;;;;;;;;;;;;;;;;5033663;28;1126;-74
2022/03/13 05:16:13;;;;;;;;;;;;;;;;;;5032922;28;1420;-75
2022/03/13 05:18:39;;;;;;;;;;;;;;;;;;5015387;28;1098;-75
2022/03/13 05:21:05;;;;;;;;;;;;;;;;;;5015438;28;1543;-75
2022/03/13 05:23:31;;;;;;;;;;;;;;;;;;5015564;28;1309;-75
2022/03/13 05:25:58;;;;;;;;;;;;;;;;;;5032886;28;1269;-75
2022/03/13 05:28:24;;;;;;;;;;;;;;;;;;5032823;28;1915;-75
2022/03/13 05:30:52;;;;;;;;;;;;;;;;;;5033025;28;1147;-74
2022/03/13 05:33:18;;;;;;;;;;;;;;;;;;5033221;28;895;-75
2022/03/13 05:35:45;;;;;;;;;;;;;;;;;;5030390;28;2071;-75
2022/03/13 05:38:11;;;;;;;;;;;;;;;;;;5035997;28;1123;-75
2022/03/13 05:40:38;;;;;;;;;;;;;;;;;;5019971;28;1244;-74
2022/03/13 05:43:04;;;;;;;;;;;;;;;;;;5033159;28;1075;-74
2022/03/13 05:45:31;;;;;;;;;;;;;;;;;;5032821;28;1339;-74
2022/03/13 05:48:00;;;;;;;;;;;;;;;;;;5014971;28;1296;-76
2022/03/13 05:50:26;;;;;;;;;;;;;;;;;;5015616;28;957;-76
2022/03/13 05:52:53;;;;;;;;;;;;;;;;;;5033648;28;893;-76
2022/03/13 05:55:20;;;;;;;;;;;;;;;;;;5034386;28;1095;-75
2022/03/13 05:57:46;;;;;;;;;;;;;;;;;;5051482;22;3784;-75
2022/03/13 06:00:15;;;;;;;;;;;;;;;;;;5031910;28;873;-75
2022/03/13 06:02:41;;;;;;;;;;;;;;;;;;5032079;28;1126;-76
2022/03/13 06:05:10;;;;;;;;;;;;;;;;;;5031804;28;1197;-77
2022/03/13 06:07:36;;;;;;;;;;;;;;;;;;5031281;28;1369;-76
2022/03/13 06:10:03;;;;;;;;;;;;;;;;;;5032054;28;1946;-76
2022/03/13 06:12:33;;;;;;;;;;;;;;;;;;5031395;28;1445;-75
2022/03/13 06:15:00;;;;;;;;;;;;;;;;;;5031057;28;1095;-77
2022/03/13 06:17:26;;;;;;;;;;;;;;;;;;5013554;28;1461;-77
2022/03/13 06:19:55;;;;;;;;;;;;;;;;;;5031787;28;876;-77
2022/03/13 06:22:26;;;;;;;;;;;;;;;;;;5031497;28;841;-77
2022/03/13 06:24:52;;;;;;;;;;;;;;;;;;5031737;28;1130;-75
2022/03/13 06:27:21;;;;;;;;;;;;;;;;;;5030936;28;1420;-75
2022/03/13 06:29:47;;;;;;;;;;;;;;;;;;5031250;28;2090;-77
2022/03/13 06:32:13;;;;;;;;;;;;;;;;;;5031167;28;1127;-75
2022/03/13 06:34:39;;;;;;;;;;;;;;;;;;5031400;28;1045;-74
2022/03/13 06:37:07;;;;;;;;;;;;;;;;;;5031069;28;1474;-75
2022/03/13 06:39:34;;;;;;;;;;;;;;;;;;5043860;28;2289;-78
2022/03/13 06:42:00;;;;;;;;;;;;;;;;;;5051560;28;1303;-76
2022/03/13 06:44:27;;;;;;;;;;;;;;;;;;5051011;28;1129;-76
2022/03/13 06:46:53;;;;;;;;;;;;;;;;;;5046817;28;1613;-75
2022/03/13 06:49:20;;;;;;;;;;;;;;;;;;5032767;28;1919;-76
2022/03/13 06:51:46;;;;;;;;;;;;;;;;;;5050981;28;1115;-75
2022/03/13 06:54:12;;;;;;;;;;;;;;;;;;5050872;28;1086;-76
2022/03/13 06:56:40;;;;;;;;;;;;;;;;;;5050913;28;1079;-76
2022/03/13 06:59:08;;;;;;;;;;;;;;;;;;5050980;28;1411;-76
2022/03/13 07:01:34;;;;;;;;;;;;;;;;;;5051421;28;858;-76
2022/03/13 07:04:00;;;;;;;;;;;;;;;;;;5033313;28;1312;-76
2022/03/13 07:06:27;;;;;;;;;;;;;;;;;;5050896;28;1091;-75
2022/03/13 07:08:53;;;;;;;;;;;;;;;;;;5051154;28;1979;-76
2022/03/13 07:11:20;;;;;;;;;;;;;;;;;;5051363;28;900;-76
2022/03/13 07:13:48;;;;;;;;;;;;;;;;;;5052259;28;1107;-76
2022/03/13 07:16:15;;;;;;;;;;;;;;;;;;5050693;28;829;-76
2022/03/13 07:18:42;;;;;;;;;;;;;;;;;;5051609;28;1413;-76
2022/03/13 07:21:08;;;;;;;;;;;;;;;;;;5051141;28;1107;-76
2022/03/13 07:23:35;;;;;;;;;;;;;;;;;;5050881;28;830;-75
2022/03/13 07:26:01;;;;;;;;;;;;;;;;;;5054242;28;1138;-76
2022/03/13 07:28:28;;;;;;;;;;;;;;;;;;5054852;28;1332;-75
2022/03/13 07:30:56;;;;;;;;;;;;;;;;;;5054849;28;1914;-75
2022/03/13 07:33:22;;;;;;;;;;;;;;;;;;5037324;28;1304;-76
2022/03/13 07:35:48;;;;;;;;;;;;;;;;;;5054782;28;913;-76
2022/03/13 07:38:15;;;;;;;;;;;;;;;;;;5054352;28;1309;-76
2022/03/13 07:40:41;;;;;;;;;;;;;;;;;;5037020;28;1359;-76
2022/03/13 07:43:08;;;;;;;;;;;;;;;;;;5054540;28;857;-75
2022/03/13 07:45:34;;;;;;;;;;;;;;;;;;5054710;28;1118;-76
2022/03/13 07:48:01;;;;;;;;;;;;;;;;;;5037056;28;1326;-76
2022/03/13 07:50:28;;;;;;;;;;;;;;;;;;5057996;28;1918;-76
2022/03/13 07:52:54;;;;;;;;;;;;;;;;;;5055772;28;755;-75
2022/03/13 07:55:21;;;;;;;;;;;;;;;;;;5054694;28;1122;-74
2022/03/13 07:57:47;;;;;;;;;;;;;;;;;;5037558;28;1394;-76
2022/03/13 08:00:15;;;;;;;;;;;;;;;;;;5036589;28;1148;-75
2022/03/13 08:02:44;;;;;;;;;;;;;;;;;;5054661;28;842;-75
2022/03/13 08:05:12;;;;;;;;;;;;;;;;;;5036546;28;880;-75
2022/03/13 08:07:38;;;;;;;;;;;;;;;;;;5053990;28;1388;-75
2022/03/13 08:10:05;;;;;;;;;;;;;;;;;;5054142;28;1932;-76
2022/03/13 08:12:32;;;;;;;;;;;;;;;;;;5054530;28;845;-76
2022/03/13 08:14:59;;;;;;;;;;;;;;;;;;5054429;28;1020;-75
2022/03/13 08:17:25;;;;;;;;;;;;;;;;;;5036107;28;1409;-76
2022/03/13 08:19:54;;;;;;;;;;;;;;;;;;5019323;28;1547;-76
2022/03/13 08:22:22;;;;;;;;;;;;;;;;;;5034116;28;1154;-76
2022/03/13 08:24:48;;;;;;;;;;;;;;;;;;5034804;28;921;-76
2022/03/13 08:27:14;;;;;;;;;;;;;;;;;;5034212;28;1305;-76
2022/03/13 08:29:40;;;;;;;;;;;;;;;;;;5034818;28;1914;-76
2022/03/13 08:32:08;;;;;;;;;;;;;;;;;;5035015;28;991;-76
2022/03/13 08:34:39;;;;;;;;;;;;;;;;;;5016721;28;1253;-76
2022/03/13 08:37:05;;;;;;;;;;;;;;;;;;5033656;28;920;-76
2022/03/13 08:39:32;;;;;;;;;;;;;;;;;;5016460;28;1254;-75
2022/03/13 08:41:59;;;;;;;;;;;;;;;;;;5034496;28;861;-77
2022/03/13 08:44:25;;;;;;;;;;;;;;;;;;5034119;28;1086;-76
2022/03/13 08:46:51;;;;;;;;;;;;;;;;;;5016348;28;1192;-76
2022/03/13 08:49:17;;;;;;;;;;;;;;;;;;5034459;28;1976;-76
2022/03/13 08:51:43;;;;;;;;;;;;;;;;;;5034088;28;1098;-76
2022/03/13 08:54:10;;;;;;;;;;;;;;;;;;5033922;28;944;-76
2022/03/13 08:56:37;;;;;;;;;;;;;;;;;;5033703;28;1087;-77
2022/03/13 08:59:03;;;;;;;;;;;;;;;;;;5033873;28;1321;-76
2022/03/13 09:01:29;;;;;;;;;;;;;;;;;;5033944;28;1071;-76
2022/03/13 09:03:56;;;;;;;;;;;;;;;;;;5034014;28;908;-76
2022/03/13 09:06:22;;;;;;;;;;;;;;;;;;5033579;28;1095;-75
2022/03/13 09:08:48;;;;;;;;;;;;;;;;;;5017658;28;1312;-75
2022/03/13 09:11:15;;;;;;;;;;;;;;;;;;5045246;28;1966;-76
2022/03/13 09:13:43;;;;;;;;;;;;;;;;;;5035354;28;1155;-75
2022/03/13 09:16:09;;;;;;;;;;;;;;;;;;5033366;28;1079;-75
2022/03/13 09:18:35;;;;;;;;;;;;;;;;;;5033523;28;1298;-76
2022/03/13 09:21:01;;;;;;;;;;;;;;;;;;5015875;28;1241;-74
2022/03/13 09:23:28;;;;;;;;;;;;;;;;;;5033675;28;1028;-76
2022/03/13 09:25:55;;;;;;;;;;;;;;;;;;5033993;28;1087;-74
2022/03/13 09:28:22;;;;;;;;;;;;;;;;;;5033034;28;1370;-76
2022/03/13 09:30:49;;;;;;;;;;;;;;;;;;5033210;28;2038;-76
2022/03/13 09:33:15;;;;;;;;;;;;;;;;;;5033083;28;1075;-75
2022/03/13 09:35:42;;;;;;;;;;;;;;;;;;5033137;28;972;-75
2022/03/13 09:38:08;;;;;;;;;;;;;;;;;;5033011;28;1347;-76
2022/03/13 09:40:34;;;;;;;;;;;;;;;;;;5033343;28;1094;-76
2022/03/13 09:43:05;;;;;;;;;;;;;;;;;;5033209;28;1138;-76
2022/03/13 09:45:31;;;;;;;;;;;;;;;;;;5015382;28;1410;-76
2022/03/13 09:47:59;;;;;;;;;;;;;;;;;;5032304;28;1387;-75
2022/03/13 09:50:25;;;;;;;;;;;;;;;;;;5032888;28;1926;-76
2022/03/13 09:52:51;;;;;;;;;;;;;;;;;;5033548;28;1079;-77
2022/03/13 09:55:17;;;;;;;;;;;;;;;;;;5033479;28;901;-76
2022/03/13 09:57:44;;;;;;;;;;;;;;;;;;5032806;28;1274;-75
2022/03/13 10:00:11;;;;;;;;;;;;;;;;;;5033032;28;1150;-77
2022/03/13 10:02:40;;;;;;;;;;;;;;;;;;5033085;28;795;-78
2022/03/13 10:05:10;;;;;;;;;;;;;;;;;;5033139;28;882;-77
2022/03/13 10:07:56;;;;;;;;;;;;;;;;;;5032519;28;1328;-76
2022/03/13 10:10:22;;;;;;;;;;;;;;;;;;5032476;28;1914;-77
2022/03/13 10:12:49;;;;;;;;;;;;;;;;;;5033057;28;985;-77
2022/03/13 10:15:15;;;;;;;;;;;;;;;;;;5032738;28;1103;-78
2022/03/13 10:17:41;;;;;;;;;;;;;;;;;;5032440;28;1415;-78
2022/03/13 10:20:14;;;;;;;;;;;;;;;;;;5032472;28;1083;-78
2022/03/13 10:22:40;;;;;;;;;;;;;;;;;;5032487;28;1079;-78
2022/03/13 10:25:07;;;;;;;;;;;;;;;;;;5014665;28;1551;-78
2022/03/13 10:27:34;;;;;;;;;;;;;;;;;;5035680;28;1451;-77
2022/03/13 10:30:01;;;;;;;;;;;;;;;;;;5031684;28;1894;-78
2022/03/13 10:32:28;;;;;;;;;;;;;;;;;;5039272;28;763;-77
2022/03/13 10:34:56;;;;;;;;;;;;;;;;;;5014267;28;1562;-78
2022/03/13 10:37:34;;;;;;;;;;;;;;;;;;5031585;28;1277;-78
2022/03/13 10:40:14;;;;;;;;;;;;;;;;;;5031989;28;1095;-77
2022/03/13 10:42:44;;;;;;;;;;;;;;;;;;5014245;28;1011;-77
2022/03/13 10:45:10;;;;;;;;;;;;;;;;;;5014207;28;1156;-76
2022/03/13 10:47:37;;;;;;;;;;;;;;;;;;5013851;28;1434;-77
2022/03/13 10:50:04;;;;;;;;;;;;;;;;;;5014432;28;1918;-77
2022/03/13 10:52:31;;;;;;;;;;;;;;;;;;5014218;28;1152;-77
2022/03/13 10:55:01;;;;;;;;;;;;;;;;;;5032276;28;845;-77
2022/03/13 10:57:27;;;;;;;;;;;;;;;;;;5013890;28;1357;-77
2022/03/13 11:00:07;;;;;;;;;;;;;;;;;;5031662;28;636;-76
2022/03/13 11:02:33;;;;;;;;;;;;;;;;;;5031573;28;1071;-78
2022/03/13 11:05:00;;;;;;;;;;;;;;;;;;5031730;28;810;-77
2022/03/13 11:07:27;;;;;;;;;;;;;;;;;;5013639;28;1361;-77
2022/03/13 11:09:53;;;;;;;;;;;;;;;;;;5031724;28;1914;-77
2022/03/13 11:12:21;;;;;;;;;;;;;;;;;;5031747;28;747;-77
2022/03/13 11:14:48;;;;;;;;;;;;;;;;;;5031635;28;1091;-77
2022/03/13 11:17:15;;;;;;;;;;;;;;;;;;5014306;28;1352;-77
2022/03/13 11:19:42;;;;;;;;;;;;;;;;;;5014026;28;1128;-77
2022/03/13 11:22:08;;;;;;;;;;;;;;;;;;5031522;28;1091;-77
2022/03/13 11:24:36;;;;;;;;;;;;;;;;;;5014300;28;1353;-76
2022/03/13 11:27:02;;;;;;;;;;;;;;;;;;5031634;28;1035;-78
2022/03/13 11:29:42;;;;;;;;;;;;;;;;;;5031334;28;1350;-77
2022/03/13 11:32:23;;;;;;;;;;;;;;;;;;5031523;28;1989;-78
2022/03/13 11:34:56;;;;;;;;;;;;;;;;;;5030748;28;1605;-77
2022/03/13 11:37:30;;;;;;;;;;;;;;;;;;5034186;28;2039;-76
2022/03/13 11:39:59;;;;;;;;;;;;;;;;;;5045328;28;1773;-77
2022/03/13 11:42:25;;;;;;;;;;;;;;;;;;5051122;28;1173;-77
2022/03/13 11:44:53;;;;;;;;;;;;;;;;;;5051314;28;1181;-77
2022/03/13 11:47:21;;;;;;;;;;;;;;;;;;5050138;28;1375;-78
2022/03/13 11:49:48;;;;;;;;;;;;;;;;;;5059832;28;1067;-78
2022/03/13 11:52:25;;;;;;;;;;;;;;;;;;5064418;28;1922;-77
2022/03/13 11:54:55;;;;;;;;;;;;;;;;;;5050825;28;845;-76
2022/03/13 11:57:22;;;;;;;;;;;;;;;;;;5050368;28;1319;-76
2022/03/13 11:59:49;;;;;;;;;;;;;;;;;;5052067;28;1005;-77
2022/03/13 12:02:19;;;;;;;;;;;;;;;;;;5050495;28;1134;-75
2022/03/13 12:04:45;;;;;;;;;;;;;;;;;;5050402;28;1067;-76
2022/03/13 12:07:24;;;;;;;;;;;;;;;;;;5049983;28;1385;-78
2022/03/13 12:09:50;;;;;;;;;;;;;;;;;;5032865;28;1052;-75
2022/03/13 12:12:17;;;;;;;;;;;;;;;;;;5051962;28;1931;-77
2022/03/13 12:14:51;;;;;;;;;;;;;;;;;;5054366;28;884;-78
2022/03/13 12:17:18;;;;;;;;;;;;;;;;;;5021345;28;1484;-77
2022/03/13 12:19:47;;;;;;;;;;;;;;;;;;5016520;28;1507;-76
2022/03/13 12:22:14;;;;;;;;;;;;;;;;;;5034221;28;1083;-77
2022/03/13 12:24:41;;;;;;;;;;;;;;;;;;5016433;28;1145;-77
2022/03/13 12:27:07;;;;;;;;;;;;;;;;;;5033683;28;1148;-78
2022/03/13 12:29:34;;;;;;;;;;;;;;;;;;5033996;28;802;-77
2022/03/13 12:32:01;;;;;;;;;;;;;;;;;;5033937;28;1971;-76
2022/03/13 12:34:29;;;;;;;;;;;;;;;;;;5033780;28;1139;-76
2022/03/13 12:36:56;;;;;;;;;;;;;;;;;;5016090;28;1051;-77
2022/03/13 12:39:23;;;;;;;;;;;;;;;;;;5033716;28;1303;-76
2022/03/13 12:41:55;;;;;;;;;;;;;;;;;;5033906;28;751;-77
2022/03/13 12:44:22;;;;;;;;;;;;;;;;;;5033710;28;1082;-78
2022/03/13 12:46:51;;;;;;;;;;;;;;;;;;5033420;28;1003;-78
2022/03/13 12:49:19;;;;;;;;;;;;;;;;;;5033491;28;1379;-77
2022/03/13 12:51:47;;;;;;;;;;;;;;;;;;5033693;28;1972;-77
2022/03/13 12:54:14;;;;;;;;;;;;;;;;;;5033708;28;815;-77
2022/03/13 12:56:45;;;;;;;;;;;;;;;;;;5032792;28;956;-78
2022/03/13 12:59:22;;;;;;;;;;;;;;;;;;5032864;28;1314;-76
2022/03/13 13:01:56;;;;;;;;;;;;;;;;;;5033762;28;1150;-79
2022/03/13 13:04:22;;;;;;;;;;;;;;;;;;5032497;28;1347;-78
2022/03/13 13:06:51;;;;;;;;;;;;;;;;;;5032997;28;959;-78
2022/03/13 13:09:25;;;;;;;;;;;;;;;;;;5040108;28;1392;-79
2022/03/13 13:11:52;;;;;;;;;;;;;;;;;;5031738;28;1914;-78
2022/03/13 13:14:20;;;;;;;;;;;;;;;;;;5018759;28;1229;-79
2022/03/13 13:16:47;;;;;;;;;;;;;;;;;;5034001;28;1445;-78
2022/03/13 13:19:13;;;;;;;;;;;;;;;;;;5033134;28;1331;-78
2022/03/13 13:21:40;;;;;;;;;;;;;;;;;;5015505;28;1168;-78
2022/03/13 13:24:25;;;;;;;;;;;;;;;;;;5015392;28;1157;-78
2022/03/13 13:26:51;;;;;;;;;;;;;;;;;;5033135;28;1091;-78
2022/03/13 13:29:29;;;;;;;;;;;;;;;;;;5032632;28;1235;-78
2022/03/13 13:32:03;;;;;;;;;;;;;;;;;;5033005;28;1911;-78
2022/03/13 13:34:30;;;;;;;;;;;;;;;;;;5032861;28;1146;-78
2022/03/13 13:37:07;;;;;;;;;;;;;;;;;;5014910;28;1112;-77
2022/03/13 13:39:35;;;;;;;;;;;;;;;;;;5032618;28;1087;-78
2022/03/13 13:42:02;;;;;;;;;;;;;;;;;;5032809;28;1091;-78
2022/03/13 13:44:31;;;;;;;;;;;;;;;;;;5032829;28;701;-79
2022/03/13 13:47:04;;;;;;;;;;;;;;;;;;5032380;28;901;-79
2022/03/13 13:49:30;;;;;;;;;;;;;;;;;;5014500;28;1467;-78
2022/03/13 13:52:09;;;;;;;;;;;;;;;;;;5033039;28;1945;-79
2022/03/13 13:54:37;;;;;;;;;;;;;;;;;;5015325;28;1204;-77
2022/03/13 13:57:04;;;;;;;;;;;;;;;;;;5032605;28;1027;-79
2022/03/13 13:59:31;;;;;;;;;;;;;;;;;;5032449;28;1413;-79
2022/03/13 14:02:13;;;;;;;;;;;;;;;;;;5032487;28;984;-79
2022/03/13 14:04:40;;;;;;;;;;;;;;;;;;5033796;28;1115;-79
2022/03/13 14:07:06;;;;;;;;;;;;;;;;;;5031716;28;1602;-78
2022/03/13 14:09:33;;;;;;;;;;;;;;;;;;5031793;28;1487;-78
2022/03/13 14:12:01;;;;;;;;;;;;;;;;;;5031968;28;1910;-78
2022/03/13 14:14:28;;;;;;;;;;;;;;;;;;5031950;28;1075;-77
2022/03/13 14:16:54;;;;;;;;;;;;;;;;;;5031645;28;1082;-80
2022/03/13 14:19:20;;;;;;;;;;;;;;;;;;5031608;28;1772;-76
2022/03/13 14:21:47;;;;;;;;;;;;;;;;;;5023527;28;1682;-78
2022/03/13 14:24:13;;;;;;;;;;;;;;;;;;5031476;28;1472;-79
2022/03/13 14:26:39;;;;;;;;;;;;;;;;;;5031880;28;1424;-78
2022/03/13 14:29:07;;;;;;;;;;;;;;;;;;5030037;28;1281;-78
2022/03/13 14:31:34;;;;;;;;;;;;;;;;;;5027732;28;1973;-78
2022/03/13 14:34:00;;;;;;;;;;;;;;;;;;5028656;28;1114;-78
2022/03/13 14:36:26;;;;;;;;;;;;;;;;;;5011302;28;1135;-78
2022/03/13 14:38:52;;;;;;;;;;;;;;;;;;5018218;28;1421;-77
2022/03/13 14:41:19;;;;;;;;;;;;;;;;;;5031550;28;1657;-77
2022/03/13 14:43:45;;;;;;;;;;;;;;;;;;5031501;28;1587;-71
2022/03/13 14:46:13;;;;;;;;;;;;;;;;;;5028941;28;1539;-71
2022/03/13 14:48:40;;;;;;;;;;;;;;;;;;5030948;28;1631;-71
2022/03/13 14:51:06;;;;;;;;;;;;;;;;;;5030901;28;1914;-71
2022/03/13 14:53:34;;;;;;;;;;;;;;;;;;5030777;28;1650;-71
2022/03/13 14:56:00;;;;;;;;;;;;;;;;;;5030635;28;1575;-69
2022/03/13 14:58:26;;;;;;;;;;;;;;;;;;5030216;28;1693;-71
2022/03/13 15:00:52;;;;;;;;;;;;;;;;;;5030974;28;1563;-70
2022/03/13 15:03:20;;;;;;;;;;;;;;;;;;5031099;28;851;-70
2022/03/13 15:05:47;;;;;;;;;;;;;;;;;;5031444;28;1594;-70
2022/03/13 15:08:13;;;;;;;;;;;;;;;;;;5033533;28;1601;-71
2022/03/13 15:10:39;;;;;;;;;;;;;;;;;;5047666;28;1578;-71
2022/03/13 15:13:06;;;;;;;;;;;;;;;;;;5051130;28;1947;-71
2022/03/13 15:15:32;;;;;;;;;;;;;;;;;;5033495;28;1535;-71
2022/03/13 15:17:58;;;;;;;;;;;;;;;;;;5031440;28;1375;-71
2022/03/13 15:20:28;;;;;;;;;;;;;;;;;;5030511;28;1615;-72
2022/03/13 15:22:54;;;;;;;;;;;;;;;;;;5030650;28;2055;-72
2022/03/13 15:25:20;;;;;;;;;;;;;;;;;;5030829;28;1067;-71
2022/03/13 15:27:47;;;;;;;;;;;;;;;;;;5029827;28;1653;-71
2022/03/13 15:30:14;;;;;;;;;;;;;;;;;;5030824;28;1599;-71
2022/03/13 15:32:40;;;;;;;;;;;;;;;;;;5030346;28;1984;-71
2022/03/13 15:35:07;;;;;;;;;;;;;;;;;;5030903;28;818;-72
2022/03/13 15:37:35;;;;;;;;;;;;;;;;;;5012128;28;1630;-72
2022/03/13 15:40:04;;;;;;;;;;;;;;;;;;5030691;28;805;-70
2022/03/13 15:42:30;;;;;;;;;;;;;;;;;;5030351;28;1532;-72
2022/03/13 15:44:56;;;;;;;;;;;;;;;;;;5030449;28;1674;-71
2022/03/13 15:47:22;;;;;;;;;;;;;;;;;;5031486;28;1626;-71
2022/03/13 15:49:49;;;;;;;;;;;;;;;;;;5015065;28;1028;-70
2022/03/13 15:52:16;;;;;;;;;;;;;;;;;;5015269;28;1906;-71
2022/03/13 15:54:43;;;;;;;;;;;;;;;;;;5032427;28;1599;-71
2022/03/13 15:57:09;;;;;;;;;;;;;;;;;;5032635;28;1409;-71
2022/03/13 15:59:35;;;;;;;;;;;;;;;;;;5029312;28;1449;-72
2022/03/13 16:02:02;;;;;;;;;;;;;;;;;;5032593;28;987;-70
2022/03/13 16:04:28;;;;;;;;;;;;;;;;;;5031947;28;1524;-71
2022/03/13 16:06:55;;;;;;;;;;;;;;;;;;5032105;28;793;-71
2022/03/13 16:09:21;;;;;;;;;;;;;;;;;;5031680;28;1535;-71
2022/03/13 16:11:48;;;;;;;;;;;;;;;;;;5032180;28;1911;-70
2022/03/13 16:14:15;;;;;;;;;;;;;;;;;;5030237;28;1536;-68
2022/03/13 16:16:41;;;;;;;;;;;;;;;;;;5030948;28;1491;-71
2022/03/13 16:19:07;;;;;;;;;;;;;;;;;;5031281;28;1480;-71
2022/03/13 16:21:34;;;;;;;;;;;;;;;;;;5031334;28;1606;-70
2022/03/13 16:24:00;;;;;;;;;;;;;;;;;;5031553;28;1674;-72
2022/03/13 16:26:27;;;;;;;;;;;;;;;;;;5031308;28;1610;-71
2022/03/13 16:28:54;;;;;;;;;;;;;;;;;;5031364;28;1567;-70
2022/03/13 16:31:21;;;;;;;;;;;;;;;;;;5021237;28;1344;-71
2022/03/13 16:33:47;;;;;;;;;;;;;;;;;;5031450;28;1985;-71
2022/03/13 16:36:13;;;;;;;;;;;;;;;;;;5030909;28;1559;-70
2022/03/13 16:38:41;;;;;;;;;;;;;;;;;;5029289;28;1907;-70
2022/03/13 16:41:09;;;;;;;;;;;;;;;;;;5031590;28;1376;-71
2022/03/13 16:43:35;;;;;;;;;;;;;;;;;;5031304;28;1423;-71
2022/03/13 16:46:02;;;;;;;;;;;;;;;;;;5012993;28;1566;-71
2022/03/13 16:48:29;;;;;;;;;;;;;;;;;;5030419;28;1564;-70
2022/03/13 16:50:55;;;;;;;;;;;;;;;;;;5030876;28;1555;-69
2022/03/13 16:53:25;;;;;;;;;;;;;;;;;;5030523;28;1977;-69
2022/03/13 16:55:52;;;;;;;;;;;;;;;;;;5029867;28;1236;-67
2022/03/13 16:58:19;;;;;;;;;;;;;;;;;;5027923;28;1408;-69
2022/03/13 17:00:45;;;;;;;;;;;;;;;;;;5011454;28;1079;-69
2022/03/13 17:03:12;;;;;;;;;;;;;;;;;;5011442;28;983;-68
2022/03/13 17:05:38;;;;;;;;;;;;;;;;;;5011697;28;1123;-68
2022/03/13 17:08:05;;;;;;;;;;;;;;;;;;5011024;28;1322;-69